createdAt,value
2022-08-05T00:02:22.484Z,51.20
2022-08-05T00:04:55.764Z,51.33
2022-08-05T00:07:58.930Z,51.74
2022-08-05T00:10:11.841Z,51.73
2022-08-05T00:12:55.619Z,51.75
2022-08-05T00:15:56.050Z,51.83
2022-08-05T00:18:21.672Z,51.86
2022-08-05T00:20:51.427Z,52.24
2022-08-05T00:23:44.468Z,52.20
2022-08-05T00:26:07.903Z,51.98
2022-08-05T00:28:37.518Z,52.10
2022-08-05T00:31:07.822Z,52.13
2022-08-05T00:34:55.706Z,51.90
2022-08-05T00:37:11.270Z,52.22
2022-08-05T00:39:14.020Z,52.31
2022-08-05T00:41:54.876Z,51.77
2022-08-05T00:44:30.438Z,52.00
2022-08-05T00:47:03.783Z,52.35
2022-08-05T00:49:32.435Z,52.38
2022-08-05T00:52:00.655Z,52.79
2022-08-05T00:54:28.151Z,52.68
2022-08-05T00:56:57.474Z,52.81
2022-08-05T00:59:24.676Z,52.59
2022-08-05T01:01:52.009Z,52.88
2022-08-05T01:04:20.350Z,53.09
2022-08-05T01:06:54.998Z,53.20
2022-08-05T01:09:22.889Z,53.08
2022-08-05T01:11:53.540Z,52.72
2022-08-05T01:15:35.077Z,53.09
2022-08-05T01:18:09.863Z,52.87
2022-08-05T01:20:57.067Z,53.09
2022-08-05T01:24:01.708Z,52.67
2022-08-05T01:27:17.741Z,52.94
2022-08-05T01:29:54.711Z,53.35
2022-08-05T01:32:27.996Z,53.59
2022-08-05T01:35:02.138Z,53.57
2022-08-05T01:37:45.131Z,53.71
2022-08-05T01:40:17.839Z,53.53
2022-08-05T01:42:49.197Z,53.60
2022-08-05T01:45:19.579Z,53.51
2022-08-05T01:47:50.545Z,53.74
2022-08-05T01:50:29.679Z,54.22
2022-08-05T01:53:02.753Z,53.58
2022-08-05T01:55:36.333Z,54.06
2022-08-05T01:58:15.482Z,54.29
2022-08-05T02:00:50.434Z,54.52
2022-08-05T02:03:46.769Z,54.37
2022-08-05T02:06:37.523Z,54.33
2022-08-05T02:09:03.263Z,53.93
2022-08-05T02:11:47.882Z,53.88
2022-08-05T02:14:34.508Z,54.34
2022-08-05T02:18:33.134Z,54.38
2022-08-05T02:20:52.569Z,54.26
2022-08-05T02:23:26.642Z,54.55
2022-08-05T02:25:57.316Z,54.47
2022-08-05T02:28:36.432Z,54.04
2022-08-05T02:31:21.242Z,54.34
2022-08-05T02:34:02.005Z,54.26
2022-08-05T02:36:35.447Z,54.28
2022-08-05T02:39:08.778Z,54.09
2022-08-05T02:41:57.948Z,53.99
2022-08-05T02:44:28.970Z,54.35
2022-08-05T02:47:00.346Z,54.35
2022-08-05T02:49:40.870Z,54.59
2022-08-05T02:52:29.978Z,54.09
2022-08-05T02:55:05.223Z,54.55
2022-08-05T02:58:11.265Z,54.44
2022-08-05T03:00:22.833Z,54.44
2022-08-05T03:02:54.836Z,54.56
2022-08-05T03:06:57.014Z,54.67
2022-08-05T03:08:12.178Z,54.66
2022-08-05T03:11:47.620Z,54.66
2022-08-05T03:13:51.928Z,54.84
2022-08-05T03:16:21.080Z,54.98
2022-08-05T03:18:48.832Z,54.68
2022-08-05T03:21:16.237Z,55.09
2022-08-05T03:23:45.736Z,55.13
2022-08-05T03:26:31.781Z,55.13
2022-08-05T03:29:00.405Z,54.95
2022-08-05T03:31:55.922Z,54.79
2022-08-05T03:34:17.387Z,54.97
2022-08-05T03:36:45.987Z,55.15
2022-08-05T03:39:20.377Z,54.77
2022-08-05T03:41:56.313Z,55.05
2022-08-05T03:44:25.229Z,55.12
2022-08-05T03:46:56.379Z,55.26
2022-08-05T03:49:24.273Z,55.18
2022-08-05T03:52:48.404Z,55.33
2022-08-05T03:56:01.098Z,55.64
2022-08-05T03:57:57.368Z,55.71
2022-08-05T04:00:27.344Z,55.70
2022-08-05T04:03:02.876Z,55.60
2022-08-05T04:05:35.216Z,55.82
2022-08-05T04:08:05.837Z,55.82
2022-08-05T04:10:52.711Z,56.21
2022-08-05T04:13:20.102Z,56.06
2022-08-05T04:15:52.882Z,56.02
2022-08-05T04:18:31.175Z,56.09
2022-08-05T04:20:59.139Z,55.89
2022-08-05T04:24:05.618Z,55.93
2022-08-05T04:26:21.047Z,56.06
2022-08-05T04:28:57.368Z,55.91
2022-08-05T04:31:33.967Z,55.84
2022-08-05T04:34:18.414Z,56.12
2022-08-05T04:36:53.408Z,56.34
2022-08-05T04:39:21.213Z,56.02
2022-08-05T04:41:51.168Z,56.41
2022-08-05T04:44:21.375Z,56.51
2022-08-05T04:47:08.982Z,56.28
2022-08-05T04:50:01.861Z,56.46
2022-08-05T04:52:27.307Z,56.54
2022-08-05T04:54:56.951Z,56.91
2022-08-05T04:57:28.948Z,57.22
2022-08-05T04:59:58.544Z,57.27
2022-08-05T05:02:36.105Z,57.14
2022-08-05T05:05:16.976Z,57.17
2022-08-05T05:08:03.445Z,57.08
2022-08-05T05:10:47.314Z,57.15
2022-08-05T05:13:23.642Z,57.39
2022-08-05T05:15:57.004Z,57.36
2022-08-05T05:18:28.694Z,57.26
2022-08-05T05:21:00.503Z,56.96
2022-08-05T05:23:27.736Z,56.65
2022-08-05T05:26:15.292Z,56.96
2022-08-05T05:28:45.135Z,57.40
2022-08-05T05:31:13.213Z,57.18
2022-08-05T05:33:57.038Z,57.31
2022-08-05T05:36:28.330Z,56.91
2022-08-05T05:38:56.288Z,57.50
2022-08-05T05:41:24.506Z,57.81
2022-08-05T05:43:58.311Z,58.06
2022-08-05T05:46:27.421Z,57.89
2022-08-05T05:48:54.652Z,57.75
2022-08-05T05:51:27.999Z,57.64
2022-08-05T05:53:58.811Z,57.72
2022-08-05T05:56:34.476Z,57.71
2022-08-05T05:59:05.801Z,57.68
2022-08-05T06:01:38.959Z,57.57
2022-08-05T06:04:12.960Z,57.59
2022-08-05T06:06:47.377Z,57.57
2022-08-05T06:09:27.475Z,57.25
2022-08-05T06:12:05.613Z,57.11
2022-08-05T06:14:36.964Z,57.17
2022-08-05T06:17:22.202Z,56.85
2022-08-05T06:19:56.588Z,57.04
2022-08-05T06:22:33.798Z,56.97
2022-08-05T06:25:24.452Z,56.81
2022-08-05T06:28:10.871Z,56.79
2022-08-05T06:30:39.887Z,56.35
2022-08-05T06:33:09.970Z,56.40
2022-08-05T06:36:09.286Z,56.10
2022-08-05T06:38:36.282Z,55.71
2022-08-05T06:41:07.970Z,55.08
2022-08-05T06:43:51.473Z,54.97
2022-08-05T06:46:29.771Z,55.04
2022-08-05T06:49:01.057Z,54.88
2022-08-05T06:51:31.318Z,55.05
2022-08-05T06:54:01.972Z,54.51
2022-08-05T06:56:34.555Z,54.29
2022-08-05T06:59:08.503Z,53.76
2022-08-05T07:01:40.692Z,53.88
2022-08-05T07:04:09.737Z,53.74
2022-08-05T07:06:37.727Z,53.47
2022-08-05T07:09:05.294Z,53.73
2022-08-05T07:11:37.340Z,53.14
2022-08-05T07:14:07.356Z,52.80
2022-08-05T07:18:01.239Z,52.54
2022-08-05T07:22:17.624Z,51.64
2022-08-05T07:24:53.541Z,51.05
2022-08-05T07:27:21.576Z,50.45
2022-08-05T07:30:27.578Z,50.25
2022-08-05T07:32:38.294Z,49.85
2022-08-05T07:36:03.736Z,49.51
2022-08-05T07:38:01.343Z,49.32
2022-08-05T07:40:33.116Z,49.74
2022-08-05T07:43:04.698Z,48.76
2022-08-05T07:45:57.135Z,48.43
2022-08-05T07:49:00.348Z,48.76
2022-08-05T07:51:23.002Z,48.52
2022-08-05T07:53:51.827Z,48.10
2022-08-05T07:57:02.526Z,47.89
2022-08-05T07:59:08.610Z,47.55
2022-08-05T08:01:41.670Z,47.36
2022-08-05T08:04:34.342Z,47.38
2022-08-05T08:07:07.379Z,47.73
2022-08-05T08:09:35.360Z,48.09
2022-08-05T08:12:12.502Z,48.00
2022-08-05T08:14:46.755Z,48.38
2022-08-05T08:17:15.822Z,48.62
2022-08-05T08:20:22.114Z,47.50
2022-08-05T08:22:33.490Z,47.79
2022-08-05T08:25:03.120Z,47.58
2022-08-05T08:27:40.107Z,47.81
2022-08-05T08:30:29.433Z,46.48
2022-08-05T08:33:08.239Z,46.53
2022-08-05T08:35:41.009Z,46.68
2022-08-05T08:38:11.735Z,46.64
2022-08-05T08:40:50.519Z,46.52
2022-08-05T08:45:16.808Z,46.25
2022-08-05T08:46:10.002Z,46.05
2022-08-05T08:49:08.047Z,46.01
2022-08-05T08:52:03.968Z,45.79
2022-08-05T08:54:28.308Z,45.45
2022-08-05T08:56:56.472Z,45.04
2022-08-05T08:59:27.546Z,43.88
2022-08-05T09:02:08.408Z,44.77
2022-08-05T09:04:37.655Z,44.03
2022-08-05T09:07:29.139Z,44.40
2022-08-05T09:10:07.551Z,44.67
2022-08-05T09:12:35.774Z,43.31
2022-08-05T09:15:06.624Z,42.61
2022-08-05T09:17:40.558Z,41.68
2022-08-05T09:20:21.029Z,41.85
2022-08-05T09:23:07.823Z,42.23
2022-08-05T09:26:02.518Z,42.38
2022-08-05T09:28:32.192Z,42.27
2022-08-05T09:31:43.846Z,42.00
2022-08-05T09:33:56.845Z,41.44
2022-08-05T09:36:27.700Z,41.24
2022-08-05T09:39:18.367Z,40.79
2022-08-05T09:41:59.271Z,41.17
2022-08-05T09:44:45.451Z,42.13
2022-08-05T09:47:28.613Z,41.61
2022-08-05T09:50:04.456Z,41.72
2022-08-05T09:52:36.670Z,41.73
2022-08-05T09:55:56.621Z,40.98
2022-08-05T09:58:09.636Z,40.74
2022-08-05T10:00:39.075Z,40.26
2022-08-05T10:03:11.669Z,40.71
2022-08-05T10:05:39.918Z,40.03
2022-08-05T10:08:34.603Z,40.80
2022-08-05T10:10:54.990Z,39.11
2022-08-05T10:13:45.754Z,38.81
2022-08-05T10:16:41.963Z,38.64
2022-08-05T10:19:23.473Z,39.59
2022-08-05T10:21:59.764Z,38.80
2022-08-05T10:24:28.619Z,38.17
2022-08-05T10:26:56.034Z,37.68
2022-08-05T10:30:07.105Z,37.02
2022-08-05T10:32:53.917Z,37.22
2022-08-05T10:35:04.162Z,37.67
2022-08-05T10:37:37.488Z,37.03
2022-08-05T10:40:28.112Z,36.94
2022-08-05T10:43:08.024Z,37.04
2022-08-05T10:45:42.319Z,36.32
2022-08-05T10:48:56.886Z,36.03
2022-08-05T10:51:28.740Z,37.07
2022-08-05T10:54:23.061Z,38.63
2022-08-05T10:56:54.558Z,40.25
2022-08-05T11:00:02.793Z,41.27
2022-08-05T11:02:38.451Z,41.83
2022-08-05T11:05:10.679Z,41.96
2022-08-05T11:08:12.733Z,42.80
2022-08-05T11:10:50.376Z,44.70
2022-08-05T11:13:54.890Z,45.80
2022-08-05T11:20:46.703Z,46.78
2022-08-05T11:24:03.229Z,46.41
2022-08-05T11:26:28.151Z,46.97
2022-08-05T11:29:11.450Z,48.67
2022-08-05T11:31:58.616Z,47.80
2022-08-05T11:34:51.446Z,49.26
2022-08-05T11:41:56.086Z,50.60
2022-08-05T11:44:40.559Z,50.64
2022-08-05T11:47:11.116Z,49.47
2022-08-05T11:49:42.944Z,49.50
2022-08-05T11:52:11.931Z,49.15
2022-08-05T11:54:41.434Z,48.24
2022-08-05T11:57:25.287Z,48.04
2022-08-05T11:59:54.409Z,47.93
2022-08-05T12:02:32.845Z,48.14
2022-08-05T12:05:07.513Z,48.86
2022-08-05T12:08:08.073Z,50.20
2022-08-05T12:10:43.567Z,50.87
2022-08-05T12:13:27.822Z,51.07
2022-08-05T12:16:18.803Z,51.09
2022-08-05T12:18:49.035Z,51.74
2022-08-05T12:21:39.028Z,52.71
2022-08-05T12:24:10.599Z,51.84
2022-08-05T12:26:44.240Z,52.40
2022-08-05T12:29:27.055Z,51.88
2022-08-05T12:31:58.496Z,50.80
2022-08-05T12:34:37.101Z,51.78
2022-08-05T12:37:09.363Z,52.33
2022-08-05T12:39:40.812Z,51.92
2022-08-05T12:42:16.611Z,51.93
2022-08-05T12:44:45.641Z,51.81
2022-08-05T12:47:30.391Z,52.03
2022-08-05T12:50:03.870Z,52.23
2022-08-05T12:52:39.209Z,51.09
2022-08-05T12:55:25.680Z,49.46
2022-08-05T12:58:50.805Z,47.00
2022-08-05T13:02:02.521Z,47.06
2022-08-05T13:03:42.506Z,46.39
2022-08-05T13:06:17.688Z,46.59
2022-08-05T13:08:50.695Z,46.56
2022-08-05T13:11:59.967Z,47.24
2022-08-05T13:14:25.133Z,48.53
2022-08-05T13:17:20.456Z,48.55
2022-08-05T13:20:14.657Z,48.75
2022-08-05T13:22:52.521Z,48.81
2022-08-05T13:25:21.952Z,49.19
2022-08-05T13:27:54.947Z,49.02
2022-08-05T13:30:34.221Z,48.67
2022-08-05T13:33:04.385Z,49.03
2022-08-05T13:35:47.190Z,48.93
2022-08-05T13:38:30.859Z,48.65
2022-08-05T13:41:03.624Z,48.46
2022-08-05T13:43:44.220Z,47.86
2022-08-05T13:46:15.014Z,48.95
2022-08-05T13:48:57.550Z,48.76
2022-08-05T13:51:40.244Z,49.47
2022-08-05T13:54:12.808Z,48.66
2022-08-05T13:56:50.722Z,47.93
2022-08-05T13:59:24.392Z,47.32
2022-08-05T14:01:57.588Z,47.68
2022-08-05T14:04:27.748Z,47.51
2022-08-05T14:06:58.654Z,47.46
2022-08-05T14:09:42.804Z,47.30
2022-08-05T14:12:18.042Z,47.15
2022-08-05T14:14:59.613Z,46.32
2022-08-05T14:17:28.397Z,46.43
2022-08-05T14:20:00.933Z,45.95
2022-08-05T14:22:30.504Z,46.61
2022-08-05T14:25:06.482Z,46.25
2022-08-05T14:27:47.536Z,46.69
2022-08-05T14:30:20.149Z,48.04
2022-08-05T14:32:49.191Z,46.91
2022-08-05T14:35:20.689Z,46.11
2022-08-05T14:37:55.017Z,46.26
2022-08-05T14:40:24.417Z,45.71
2022-08-05T14:42:52.702Z,46.52
2022-08-05T14:45:20.041Z,47.04
2022-08-05T14:48:02.869Z,47.03
2022-08-05T14:50:31.882Z,46.47
2022-08-05T14:53:00.252Z,46.02
2022-08-05T14:55:39.183Z,46.09
2022-08-05T14:58:11.680Z,45.38
2022-08-05T15:00:58.430Z,44.23
2022-08-05T15:03:33.537Z,42.62
2022-08-05T15:06:13.004Z,40.73
2022-08-05T15:08:59.776Z,39.78
2022-08-05T15:11:52.723Z,38.71
2022-08-05T15:14:34.871Z,37.39
2022-08-05T15:17:09.991Z,35.19
2022-08-05T15:19:56.406Z,35.78
2022-08-05T15:22:27.062Z,37.30
2022-08-05T15:24:56.554Z,37.76
2022-08-05T15:27:25.759Z,38.37
2022-08-05T15:29:56.751Z,38.21
2022-08-05T15:32:27.463Z,38.64
2022-08-05T15:34:57.443Z,38.40
2022-08-05T15:38:33.631Z,39.46
2022-08-05T15:40:58.917Z,40.85
2022-08-05T15:43:12.445Z,40.90
2022-08-05T15:45:46.140Z,41.40
2022-08-05T15:48:13.955Z,41.52
2022-08-05T15:50:47.850Z,41.49
2022-08-05T15:53:15.395Z,42.53
2022-08-05T15:56:02.686Z,43.11
2022-08-05T15:58:36.935Z,44.15
2022-08-05T16:01:16.232Z,44.32
2022-08-05T16:03:50.493Z,44.70
2022-08-05T16:06:20.760Z,43.91
2022-08-05T16:08:53.467Z,45.57
2022-08-05T16:11:40.306Z,45.64
2022-08-05T16:14:09.114Z,45.97
2022-08-05T16:16:36.733Z,46.78
2022-08-05T16:19:05.048Z,46.85
2022-08-05T16:21:58.721Z,47.48
2022-08-05T16:24:39.738Z,48.08
2022-08-05T16:27:08.183Z,48.77
2022-08-05T16:29:37.045Z,49.50
2022-08-05T16:32:06.618Z,49.77
2022-08-05T16:34:39.285Z,50.29
2022-08-05T16:38:02.037Z,51.49
2022-08-05T16:40:04.944Z,51.84
2022-08-05T16:42:35.249Z,52.53
2022-08-05T16:45:05.911Z,52.95
2022-08-05T16:47:54.881Z,53.82
2022-08-05T16:50:25.905Z,54.58
2022-08-05T16:52:56.466Z,54.67
2022-08-05T16:55:26.160Z,55.71
2022-08-05T16:58:01.464Z,56.19
2022-08-05T17:00:34.819Z,56.41
2022-08-05T17:03:15.253Z,56.18
2022-08-05T17:05:51.724Z,56.04
2022-08-05T17:08:33.483Z,55.68
2022-08-05T17:11:16.486Z,54.96
2022-08-05T17:13:45.154Z,54.07
2022-08-05T17:16:33.498Z,53.96
2022-08-05T17:19:01.976Z,52.79
2022-08-05T17:21:35.688Z,53.15
2022-08-05T17:24:19.718Z,53.76
2022-08-05T17:26:53.948Z,54.19
2022-08-05T17:29:33.565Z,54.15
2022-08-05T17:32:11.290Z,54.01
2022-08-05T17:34:40.177Z,54.11
2022-08-05T17:37:27.327Z,54.16
2022-08-05T17:39:57.485Z,54.34
2022-08-05T17:42:32.006Z,54.88
2022-08-05T17:45:09.939Z,54.03
2022-08-05T17:47:52.964Z,54.76
2022-08-05T17:50:28.299Z,54.77
2022-08-05T17:52:59.926Z,54.60
2022-08-05T17:55:37.664Z,55.41
2022-08-05T17:58:09.834Z,54.86
2022-08-05T18:00:44.667Z,55.54
2022-08-05T18:03:48.481Z,55.86
2022-08-05T18:06:11.100Z,55.79
2022-08-05T18:08:45.024Z,56.88
2022-08-05T18:11:24.866Z,56.67
2022-08-05T18:14:06.714Z,56.84
2022-08-05T18:16:51.091Z,57.21
2022-08-05T18:19:22.660Z,57.31
2022-08-05T18:22:07.556Z,57.32
2022-08-05T18:24:39.649Z,57.21
2022-08-05T18:27:18.115Z,57.48
2022-08-05T18:29:54.145Z,57.42
2022-08-05T18:32:27.970Z,57.20
2022-08-05T18:34:56.767Z,57.57
2022-08-05T18:37:34.164Z,57.30
2022-08-05T18:41:03.349Z,57.57
2022-08-05T18:42:59.512Z,58.17
2022-08-05T18:45:41.691Z,58.15
2022-08-05T18:48:10.993Z,58.21
2022-08-05T18:50:42.232Z,57.36
2022-08-05T18:53:19.131Z,57.71
2022-08-05T18:55:50.523Z,57.98
2022-08-05T18:58:17.722Z,57.94
2022-08-05T19:00:44.982Z,58.17
2022-08-05T19:03:15.529Z,57.98
2022-08-05T19:06:12.227Z,57.80
2022-08-05T19:08:31.258Z,58.20
2022-08-05T19:11:04.543Z,58.43
2022-08-05T19:13:35.586Z,58.40
2022-08-05T19:16:05.131Z,58.17
2022-08-05T19:18:52.424Z,58.75
2022-08-05T19:21:19.593Z,59.17
2022-08-05T19:24:07.483Z,59.18
2022-08-05T19:26:34.946Z,59.45
2022-08-05T19:29:11.446Z,59.32
2022-08-05T19:31:44.809Z,59.20
2022-08-05T19:34:18.626Z,59.64
2022-08-05T19:36:47.290Z,59.60
2022-08-05T19:39:17.276Z,59.68
2022-08-05T19:42:06.916Z,59.68
2022-08-05T19:44:31.941Z,59.41
2022-08-05T19:46:59.951Z,59.47
2022-08-05T19:49:27.161Z,59.44
2022-08-05T19:52:08.758Z,59.70
2022-08-05T19:54:41.917Z,59.70
2022-08-05T19:57:10.095Z,59.47
2022-08-05T19:59:55.446Z,59.96
2022-08-05T20:02:28.456Z,60.20
2022-08-05T20:04:58.948Z,60.39
2022-08-05T20:07:46.271Z,60.31
2022-08-05T20:10:17.496Z,60.59
2022-08-05T20:12:49.263Z,60.37
2022-08-05T20:15:48.231Z,60.44
2022-08-05T20:18:10.652Z,60.29
2022-08-05T20:20:57.097Z,60.10
2022-08-05T20:23:39.524Z,59.83
2022-08-05T20:26:17.293Z,59.91
2022-08-05T20:28:49.717Z,59.91
2022-08-05T20:31:21.711Z,60.37
2022-08-05T20:33:51.207Z,60.26
2022-08-05T20:36:21.767Z,60.37
2022-08-05T20:38:54.440Z,60.55
2022-08-05T20:41:44.358Z,60.47
2022-08-05T20:44:29.127Z,60.42
2022-08-05T20:47:05.196Z,60.72
2022-08-05T20:49:39.755Z,60.67
2022-08-05T20:52:08.496Z,60.19
2022-08-05T20:54:59.087Z,60.56
2022-08-05T20:57:41.803Z,60.28
2022-08-05T21:00:41.524Z,60.26
2022-08-05T21:02:58.932Z,60.22
2022-08-05T21:05:48.363Z,60.63
2022-08-05T21:08:15.934Z,60.43
2022-08-05T21:10:48.571Z,60.34
2022-08-05T21:13:20.253Z,60.53
2022-08-05T21:15:55.222Z,60.42
2022-08-05T21:18:23.415Z,60.30
2022-08-05T21:20:50.717Z,60.08
2022-08-05T21:23:17.984Z,59.84
2022-08-05T21:25:45.180Z,59.96
2022-08-05T21:28:12.380Z,59.56
2022-08-05T21:30:45.749Z,60.00
2022-08-05T21:33:22.286Z,60.13
2022-08-05T21:35:58.606Z,60.62
2022-08-05T21:38:27.608Z,60.69
2022-08-05T21:40:54.806Z,60.68
2022-08-05T21:43:24.808Z,60.59
2022-08-05T21:45:57.836Z,60.86
2022-08-05T21:48:28.953Z,60.75
2022-08-05T21:50:59.255Z,60.96
2022-08-05T21:53:27.374Z,61.27
2022-08-05T21:56:04.427Z,61.43
2022-08-05T21:58:42.018Z,61.09
2022-08-05T22:01:10.608Z,61.05
2022-08-05T22:03:52.630Z,60.60
2022-08-05T22:06:23.085Z,60.92
2022-08-05T22:09:14.636Z,61.03
2022-08-05T22:11:46.952Z,61.13
2022-08-05T22:14:33.428Z,60.94
2022-08-05T22:17:06.628Z,60.74
2022-08-05T22:20:03.277Z,61.15
2022-08-05T22:22:27.351Z,60.89
2022-08-05T22:24:58.847Z,60.74
2022-08-05T22:28:09.240Z,60.76
2022-08-05T22:30:17.173Z,61.04
2022-08-05T22:32:44.590Z,60.58
2022-08-05T22:35:13.536Z,60.62
2022-08-05T22:37:59.103Z,60.64
2022-08-05T22:40:27.370Z,60.93
2022-08-05T22:42:58.450Z,60.83
2022-08-05T22:45:25.974Z,60.97
2022-08-05T22:47:57.450Z,61.38
2022-08-05T22:50:27.799Z,61.36
2022-08-05T22:52:55.688Z,61.29
2022-08-05T22:55:24.620Z,61.50
2022-08-05T22:57:54.979Z,61.32
2022-08-05T23:00:23.779Z,61.25
2022-08-05T23:02:52.129Z,60.80
2022-08-05T23:05:22.124Z,60.70
2022-08-05T23:07:51.713Z,60.66
2022-08-05T23:10:23.870Z,60.70
2022-08-05T23:12:54.736Z,61.23
2022-08-05T23:15:34.848Z,61.07
2022-08-05T23:18:06.205Z,61.10
2022-08-05T23:20:39.511Z,60.93
2022-08-05T23:23:08.422Z,60.93
2022-08-05T23:25:51.635Z,61.11
2022-08-05T23:28:28.880Z,61.30
2022-08-05T23:31:15.942Z,61.37
2022-08-05T23:34:05.969Z,61.84
2022-08-05T23:36:40.262Z,61.72
2022-08-05T23:39:17.471Z,61.58
2022-08-05T23:41:51.960Z,61.31
2022-08-05T23:44:22.679Z,61.46
2022-08-05T23:46:52.650Z,61.66
2022-08-05T23:49:23.867Z,61.77
2022-08-05T23:52:00.907Z,61.74
2022-08-05T23:54:36.542Z,61.71
2022-08-05T23:57:07.767Z,61.63
